Westminster, CO (80035)

9:12 AM MDT on July 27, 2016 (GMT -0600)
Shaw Heights | | Change Station

Elev 5469 ft 39.85 °N, 105.04 °W | Updated 2 minutes ago

Scattered Clouds
Scattered Clouds
73.0 °F
Feels Like 77 °F
N
3.7
Wind Variable Wind from NNE

Today
High -- | Low -- °F
--% Chance of Precip.
Yesterday
High -- | Low -- °F
Precip. -- in
Pressure 30.26 in
Visibility 20.0 miles
Clouds Scattered Clouds 14000 ft
Scattered Clouds 20000 ft
Heat Index 77 °F
Dew Point 53 °F
Humidity 49%
Rainfall 0.00 in
Snow Depth Not available.
5:54 AM 8:17 PM
Last Quarter, 42% visible
METAR KBJC 271447Z 35011KT 20SM SCT140 SCT200 22/07 A3026
Pressure 30.26 in
Visibility 20.0 miles
Clouds Scattered Clouds 14000 ft
Scattered Clouds 20000 ft
Heat Index 77 °F
Dew Point 53 °F
Humidity 49%
Rainfall 0.00 in
Snow Depth Not available.
5:54 AM 8:17 PM
Last Quarter, 42% visible
METAR KBJC 271447Z 35011KT 20SM SCT140 SCT200 22/07 A3026

10-Day Weather Forecast

Almanac

Astronomy

Jul. 27, 2016 Rise Set
Actual Time
Civil Twilight
Nautical Twilight
Astronomical Twilight
Moon
Length of Visible Light
Length of Day
Tomorrow will be .
, % of the Moon is Illuminated

Today's Extremes

State Highs State Lows

Community

WunderPhotos

Upload Photos

1,927,858 photos uploaded!

WunderBlog® & News

Nearby

Air Quality

  Air Quality AQ Index Pollutant
Not available.

Snow Depth

Station Depth Elevation

Earthquake Activity

City Distance Mag. Time & Date
Minimum magnitude displayed is 2.5.

Coastal Water Temperatures

Place Temperature

Stations

Nearby Weather Stations

Station Location Temp. Windchill Dew Point Humidity Wind Precip. Elev Updated Type
                   

Watches & Warnings

There are currently no watches in effect.